4TN4 weather

Cotton Field
Eads, Tennessee, United States

Public forecast

Using degrees Fahrenheit for public forecast. Weather courtesy of forecast.io.

Closest aviation weather report (METAR) to Cotton Field

Closest report is Olive Branch Airport, 14.6 nm (27.1 km) SSW. Retrieved 2019/10/16 03:35 UTC (0 seconds ago):

KOLV 160335Z AUTO 18006KT 10SM BKN007 OVC012 19/19 A2987 RMK A01

Closest aviation forecast (TAF) to Cotton Field

Closest forecast is Memphis International Airport, 18.8 nm (34.9 km) WSW. Retrieved 2019-10-16 04:00 UTC (0 seconds ago):

TAF COR KMEM 160359Z 1604/1706 21006KT P6SM VCSH SCT006 OVC011 TEMPO 1604/1605 BKN006 FM160500 35012G20KT P6SM VCSH BKN025 BKN050 FM161200 36012KT P6SM SKC FM162100 33007KT P6SM SKC